sensor_id;sensor_type;location;lat;lon;timestamp;P1;durP1;ratioP1;P2;durP2;ratioP2
70761;SDS011;58360;0.000;0.000;2023-04-03T00:01:08;10.50;;;6.03;;
70761;SDS011;58360;0.000;0.000;2023-04-03T00:03:35;9.30;;;5.30;;
70761;SDS011;58360;0.000;0.000;2023-04-03T00:06:01;10.93;;;5.90;;
70761;SDS011;58360;0.000;0.000;2023-04-03T00:08:28;12.07;;;6.45;;
70761;SDS011;58360;0.000;0.000;2023-04-03T00:10:56;10.85;;;6.28;;
70761;SDS011;58360;0.000;0.000;2023-04-03T00:13:22;10.55;;;5.10;;
70761;SDS011;58360;0.000;0.000;2023-04-03T00:15:48;10.93;;;5.32;;
70761;SDS011;58360;0.000;0.000;2023-04-03T00:18:14;12.07;;;6.35;;
70761;SDS011;58360;0.000;0.000;2023-04-03T00:20:40;12.63;;;5.63;;
70761;SDS011;58360;0.000;0.000;2023-04-03T00:23:06;11.75;;;5.93;;
70761;SDS011;58360;0.000;0.000;2023-04-03T00:25:32;10.27;;;5.40;;
70761;SDS011;58360;0.000;0.000;2023-04-03T00:27:58;12.63;;;5.63;;
70761;SDS011;58360;0.000;0.000;2023-04-03T00:30:24;14.80;;;6.07;;
70761;SDS011;58360;0.000;0.000;2023-04-03T00:32:50;9.20;;;5.10;;
70761;SDS011;58360;0.000;0.000;2023-04-03T00:35:17;8.77;;;5.07;;
70761;SDS011;58360;0.000;0.000;2023-04-03T00:37:43;14.80;;;5.25;;
70761;SDS011;58360;0.000;0.000;2023-04-03T00:40:10;11.13;;;5.32;;
70761;SDS011;58360;0.000;0.000;2023-04-03T00:42:39;14.07;;;5.47;;
70761;SDS011;58360;0.000;0.000;2023-04-03T00:47:31;11.32;;;5.10;;
70761;SDS011;58360;0.000;0.000;2023-04-03T00:49:57;9.45;;;5.57;;
70761;SDS011;58360;0.000;0.000;2023-04-03T00:52:26;11.27;;;5.63;;
70761;SDS011;58360;0.000;0.000;2023-04-03T00:54:56;11.60;;;5.50;;
70761;SDS011;58360;0.000;0.000;2023-04-03T00:57:24;11.50;;;5.38;;
70761;SDS011;58360;0.000;0.000;2023-04-03T00:59:52;9.60;;;5.38;;
70761;SDS011;58360;0.000;0.000;2023-04-03T01:02:21;7.82;;;4.72;;
70761;SDS011;58360;0.000;0.000;2023-04-03T01:04:47;11.02;;;5.28;;
70761;SDS011;58360;0.000;0.000;2023-04-03T01:07:23;11.30;;;4.88;;
70761;SDS011;58360;0.000;0.000;2023-04-03T01:09:54;13.38;;;5.10;;
70761;SDS011;58360;0.000;0.000;2023-04-03T01:12:27;8.40;;;5.55;;
70761;SDS011;58360;0.000;0.000;2023-04-03T01:14:56;10.43;;;5.78;;
70761;SDS011;58360;0.000;0.000;2023-04-03T01:17:26;11.32;;;6.05;;
70761;SDS011;58360;0.000;0.000;2023-04-03T01:25:35;10.85;;;5.50;;
70761;SDS011;58360;0.000;0.000;2023-04-03T01:28:08;11.13;;;5.88;;
70761;SDS011;58360;0.000;0.000;2023-04-03T01:30:47;10.80;;;5.65;;
70761;SDS011;58360;0.000;0.000;2023-04-03T01:33:32;13.63;;;6.20;;
70761;SDS011;58360;0.000;0.000;2023-04-03T01:35:58;12.40;;;5.85;;
70761;SDS011;58360;0.000;0.000;2023-04-03T01:38:24;12.45;;;5.75;;
70761;SDS011;58360;0.000;0.000;2023-04-03T01:40:50;9.65;;;6.15;;
70761;SDS011;58360;0.000;0.000;2023-04-03T01:43:16;10.77;;;5.63;;
70761;SDS011;58360;0.000;0.000;2023-04-03T01:45:42;11.88;;;6.00;;
70761;SDS011;58360;0.000;0.000;2023-04-03T01:48:07;12.73;;;6.35;;
70761;SDS011;58360;0.000;0.000;2023-04-03T01:50:33;12.95;;;6.68;;
70761;SDS011;58360;0.000;0.000;2023-04-03T01:52:59;14.32;;;6.90;;
70761;SDS011;58360;0.000;0.000;2023-04-03T01:55:24;13.15;;;6.38;;
70761;SDS011;58360;0.000;0.000;2023-04-03T01:57:50;10.27;;;6.68;;
70761;SDS011;58360;0.000;0.000;2023-04-03T02:00:16;13.27;;;6.30;;
70761;SDS011;58360;0.000;0.000;2023-04-03T02:02:41;13.88;;;6.85;;
70761;SDS011;58360;0.000;0.000;2023-04-03T02:05:07;12.68;;;6.18;;
70761;SDS011;58360;0.000;0.000;2023-04-03T02:07:33;12.23;;;6.35;;
70761;SDS011;58360;0.000;0.000;2023-04-03T02:09:59;13.02;;;6.32;;
70761;SDS011;58360;0.000;0.000;2023-04-03T02:12:28;10.27;;;6.50;;
70761;SDS011;58360;0.000;0.000;2023-04-03T02:14:54;14.68;;;6.93;;
70761;SDS011;58360;0.000;0.000;2023-04-03T02:17:20;9.50;;;6.72;;
70761;SDS011;58360;0.000;0.000;2023-04-03T02:19:45;10.27;;;6.35;;
70761;SDS011;58360;0.000;0.000;2023-04-03T02:22:11;12.30;;;6.82;;
70761;SDS011;58360;0.000;0.000;2023-04-03T02:24:37;13.52;;;7.05;;
70761;SDS011;58360;0.000;0.000;2023-04-03T02:27:04;15.48;;;7.72;;
70761;SDS011;58360;0.000;0.000;2023-04-03T02:29:29;14.43;;;6.88;;
70761;SDS011;58360;0.000;0.000;2023-04-03T02:31:55;12.07;;;7.35;;
70761;SDS011;58360;0.000;0.000;2023-04-03T02:34:21;17.02;;;7.47;;
70761;SDS011;58360;0.000;0.000;2023-04-03T02:36:46;13.52;;;7.05;;
70761;SDS011;58360;0.000;0.000;2023-04-03T02:39:12;13.35;;;6.93;;
70761;SDS011;58360;0.000;0.000;2023-04-03T02:41:38;13.52;;;7.20;;
70761;SDS011;58360;0.000;0.000;2023-04-03T02:44:08;14.68;;;7.57;;
70761;SDS011;58360;0.000;0.000;2023-04-03T02:46:37;12.27;;;6.95;;
70761;SDS011;58360;0.000;0.000;2023-04-03T02:49:02;10.07;;;6.70;;
70761;SDS011;58360;0.000;0.000;2023-04-03T02:51:28;11.52;;;6.55;;
70761;SDS011;58360;0.000;0.000;2023-04-03T02:53:54;10.57;;;6.32;;
70761;SDS011;58360;0.000;0.000;2023-04-03T02:56:20;11.02;;;6.85;;
70761;SDS011;58360;0.000;0.000;2023-04-03T02:58:46;12.02;;;7.25;;
70761;SDS011;58360;0.000;0.000;2023-04-03T03:01:13;14.18;;;7.68;;
70761;SDS011;58360;0.000;0.000;2023-04-03T03:03:39;11.75;;;7.32;;
70761;SDS011;58360;0.000;0.000;2023-04-03T03:06:10;12.70;;;7.38;;
70761;SDS011;58360;0.000;0.000;2023-04-03T03:08:37;11.65;;;7.55;;
70761;SDS011;58360;0.000;0.000;2023-04-03T03:11:04;12.55;;;7.32;;
70761;SDS011;58360;0.000;0.000;2023-04-03T03:13:30;13.25;;;6.97;;
70761;SDS011;58360;0.000;0.000;2023-04-03T03:15:56;11.00;;;6.60;;
70761;SDS011;58360;0.000;0.000;2023-04-03T03:18:22;11.90;;;7.30;;
70761;SDS011;58360;0.000;0.000;2023-04-03T03:20:55;12.55;;;7.88;;
70761;SDS011;58360;0.000;0.000;2023-04-03T03:23:22;14.20;;;7.53;;
70761;SDS011;58360;0.000;0.000;2023-04-03T03:25:53;12.77;;;7.43;;
70761;SDS011;58360;0.000;0.000;2023-04-03T03:28:23;12.45;;;7.53;;
70761;SDS011;58360;0.000;0.000;2023-04-03T03:30:50;11.38;;;7.15;;
70761;SDS011;58360;0.000;0.000;2023-04-03T03:33:16;12.30;;;6.88;;
70761;SDS011;58360;0.000;0.000;2023-04-03T03:35:42;10.73;;;7.60;;
70761;SDS011;58360;0.000;0.000;2023-04-03T03:38:08;11.38;;;7.25;;
70761;SDS011;58360;0.000;0.000;2023-04-03T03:40:34;13.38;;;7.35;;
70761;SDS011;58360;0.000;0.000;2023-04-03T03:42:59;15.27;;;7.57;;
70761;SDS011;58360;0.000;0.000;2023-04-03T03:45:25;16.50;;;7.65;;
70761;SDS011;58360;0.000;0.000;2023-04-03T03:47:51;12.57;;;7.38;;
70761;SDS011;58360;0.000;0.000;2023-04-03T03:50:17;11.95;;;7.28;;
70761;SDS011;58360;0.000;0.000;2023-04-03T03:52:42;14.75;;;7.80;;
70761;SDS011;58360;0.000;0.000;2023-04-03T03:55:08;13.27;;;7.90;;
70761;SDS011;58360;0.000;0.000;2023-04-03T03:57:34;16.63;;;8.30;;
70761;SDS011;58360;0.000;0.000;2023-04-03T04:00:00;15.50;;;8.55;;
70761;SDS011;58360;0.000;0.000;2023-04-03T04:02:25;17.92;;;8.18;;
70761;SDS011;58360;0.000;0.000;2023-04-03T04:04:51;14.98;;;8.02;;
70761;SDS011;58360;0.000;0.000;2023-04-03T04:07:17;14.60;;;8.25;;
70761;SDS011;58360;0.000;0.000;2023-04-03T04:09:43;16.92;;;8.75;;
70761;SDS011;58360;0.000;0.000;2023-04-03T04:12:08;11.48;;;7.45;;
70761;SDS011;58360;0.000;0.000;2023-04-03T04:14:34;11.25;;;7.65;;
70761;SDS011;58360;0.000;0.000;2023-04-03T04:16:59;13.18;;;7.95;;
70761;SDS011;58360;0.000;0.000;2023-04-03T04:19:27;17.00;;;8.18;;
70761;SDS011;58360;0.000;0.000;2023-04-03T04:21:53;13.50;;;8.60;;
70761;SDS011;58360;0.000;0.000;2023-04-03T04:24:18;11.60;;;7.75;;
70761;SDS011;58360;0.000;0.000;2023-04-03T04:26:44;12.77;;;7.95;;
70761;SDS011;58360;0.000;0.000;2023-04-03T04:29:10;15.90;;;8.70;;
70761;SDS011;58360;0.000;0.000;2023-04-03T04:31:36;15.18;;;8.77;;
70761;SDS011;58360;0.000;0.000;2023-04-03T04:34:02;11.55;;;7.93;;
70761;SDS011;58360;0.000;0.000;2023-04-03T04:36:27;17.45;;;8.48;;
70761;SDS011;58360;0.000;0.000;2023-04-03T04:38:53;16.92;;;8.80;;
70761;SDS011;58360;0.000;0.000;2023-04-03T04:41:20;18.42;;;8.98;;
70761;SDS011;58360;0.000;0.000;2023-04-03T04:43:47;15.23;;;9.23;;
70761;SDS011;58360;0.000;0.000;2023-04-03T04:46:16;15.82;;;8.77;;
70761;SDS011;58360;0.000;0.000;2023-04-03T04:48:42;12.73;;;8.63;;
70761;SDS011;58360;0.000;0.000;2023-04-03T04:51:09;15.35;;;8.65;;
70761;SDS011;58360;0.000;0.000;2023-04-03T04:53:34;13.68;;;8.88;;
70761;SDS011;58360;0.000;0.000;2023-04-03T04:56:00;17.70;;;8.48;;
70761;SDS011;58360;0.000;0.000;2023-04-03T04:58:26;16.83;;;9.43;;
70761;SDS011;58360;0.000;0.000;2023-04-03T05:00:58;14.90;;;9.18;;
70761;SDS011;58360;0.000;0.000;2023-04-03T05:03:28;19.63;;;10.07;;
70761;SDS011;58360;0.000;0.000;2023-04-03T05:05:54;16.77;;;10.70;;
70761;SDS011;58360;0.000;0.000;2023-04-03T05:08:20;18.15;;;9.70;;
70761;SDS011;58360;0.000;0.000;2023-04-03T05:10:46;16.10;;;9.43;;
70761;SDS011;58360;0.000;0.000;2023-04-03T05:13:12;15.10;;;9.18;;
70761;SDS011;58360;0.000;0.000;2023-04-03T05:15:39;13.70;;;8.93;;
70761;SDS011;58360;0.000;0.000;2023-04-03T05:18:05;17.08;;;10.30;;
70761;SDS011;58360;0.000;0.000;2023-04-03T05:20:32;19.42;;;8.90;;
70761;SDS011;58360;0.000;0.000;2023-04-03T05:22:58;18.05;;;9.02;;
70761;SDS011;58360;0.000;0.000;2023-04-03T05:25:24;20.95;;;9.55;;
70761;SDS011;58360;0.000;0.000;2023-04-03T05:27:50;18.13;;;9.18;;
70761;SDS011;58360;0.000;0.000;2023-04-03T05:30:16;17.23;;;8.95;;
70761;SDS011;58360;0.000;0.000;2023-04-03T05:32:42;15.75;;;9.30;;
70761;SDS011;58360;0.000;0.000;2023-04-03T05:35:08;16.80;;;9.95;;
70761;SDS011;58360;0.000;0.000;2023-04-03T05:37:34;14.55;;;9.38;;
70761;SDS011;58360;0.000;0.000;2023-04-03T05:40:00;18.63;;;9.82;;
70761;SDS011;58360;0.000;0.000;2023-04-03T05:42:26;20.13;;;9.88;;
70761;SDS011;58360;0.000;0.000;2023-04-03T05:44:52;22.33;;;10.25;;
70761;SDS011;58360;0.000;0.000;2023-04-03T05:47:18;23.95;;;9.63;;
70761;SDS011;58360;0.000;0.000;2023-04-03T05:49:44;31.42;;;10.60;;
70761;SDS011;58360;0.000;0.000;2023-04-03T05:52:27;18.20;;;9.57;;
70761;SDS011;58360;0.000;0.000;2023-04-03T05:55:00;19.35;;;7.95;;
70761;SDS011;58360;0.000;0.000;2023-04-03T05:57:25;16.98;;;8.15;;
70761;SDS011;58360;0.000;0.000;2023-04-03T05:59:51;20.08;;;7.95;;
70761;SDS011;58360;0.000;0.000;2023-04-03T06:02:18;12.38;;;6.47;;
70761;SDS011;58360;0.000;0.000;2023-04-03T06:04:46;14.80;;;6.82;;
70761;SDS011;58360;0.000;0.000;2023-04-03T06:07:16;9.90;;;6.15;;
70761;SDS011;58360;0.000;0.000;2023-04-03T06:09:46;10.93;;;7.03;;
70761;SDS011;58360;0.000;0.000;2023-04-03T06:12:12;11.40;;;5.93;;
70761;SDS011;58360;0.000;0.000;2023-04-03T06:14:38;9.00;;;5.50;;
70761;SDS011;58360;0.000;0.000;2023-04-03T06:17:04;15.98;;;6.22;;
70761;SDS011;58360;0.000;0.000;2023-04-03T06:19:30;12.18;;;6.28;;
70761;SDS011;58360;0.000;0.000;2023-04-03T06:21:56;9.73;;;5.22;;
70761;SDS011;58360;0.000;0.000;2023-04-03T06:24:21;10.02;;;5.30;;
70761;SDS011;58360;0.000;0.000;2023-04-03T06:26:49;8.07;;;4.97;;
70761;SDS011;58360;0.000;0.000;2023-04-03T06:29:16;11.73;;;5.07;;
70761;SDS011;58360;0.000;0.000;2023-04-03T06:31:42;10.43;;;5.03;;
70761;SDS011;58360;0.000;0.000;2023-04-03T06:34:09;11.23;;;5.13;;
70761;SDS011;58360;0.000;0.000;2023-04-03T06:36:36;12.13;;;5.20;;
70761;SDS011;58360;0.000;0.000;2023-04-03T06:39:02;9.40;;;4.75;;
70761;SDS011;58360;0.000;0.000;2023-04-03T06:41:28;7.53;;;4.40;;
70761;SDS011;58360;0.000;0.000;2023-04-03T06:43:54;8.68;;;4.57;;
70761;SDS011;58360;0.000;0.000;2023-04-03T06:46:22;9.23;;;4.82;;
70761;SDS011;58360;0.000;0.000;2023-04-03T06:48:49;7.07;;;3.92;;
70761;SDS011;58360;0.000;0.000;2023-04-03T06:51:28;8.15;;;4.78;;
70761;SDS011;58360;0.000;0.000;2023-04-03T06:54:02;7.78;;;3.83;;
70761;SDS011;58360;0.000;0.000;2023-04-03T06:56:33;9.88;;;4.53;;
70761;SDS011;58360;0.000;0.000;2023-04-03T06:58:59;10.20;;;4.50;;
70761;SDS011;58360;0.000;0.000;2023-04-03T07:01:26;14.77;;;4.60;;
70761;SDS011;58360;0.000;0.000;2023-04-03T07:03:56;9.77;;;4.78;;
70761;SDS011;58360;0.000;0.000;2023-04-03T07:06:21;9.27;;;3.83;;
70761;SDS011;58360;0.000;0.000;2023-04-03T07:08:47;7.57;;;3.85;;
70761;SDS011;58360;0.000;0.000;2023-04-03T07:11:14;9.18;;;3.80;;
70761;SDS011;58360;0.000;0.000;2023-04-03T07:13:40;12.10;;;4.15;;
70761;SDS011;58360;0.000;0.000;2023-04-03T07:16:07;10.77;;;4.00;;
70761;SDS011;58360;0.000;0.000;2023-04-03T07:18:33;9.57;;;3.20;;
70761;SDS011;58360;0.000;0.000;2023-04-03T07:21:00;13.65;;;3.58;;
70761;SDS011;58360;0.000;0.000;2023-04-03T07:23:26;8.52;;;3.55;;
70761;SDS011;58360;0.000;0.000;2023-04-03T07:25:52;8.50;;;3.60;;
70761;SDS011;58360;0.000;0.000;2023-04-03T07:28:19;11.77;;;3.30;;
70761;SDS011;58360;0.000;0.000;2023-04-03T07:31:10;9.38;;;3.47;;
70761;SDS011;58360;0.000;0.000;2023-04-03T07:33:37;14.98;;;4.07;;
70761;SDS011;58360;0.000;0.000;2023-04-03T07:36:04;12.95;;;3.85;;
70761;SDS011;58360;0.000;0.000;2023-04-03T07:38:34;8.35;;;3.40;;
70761;SDS011;58360;0.000;0.000;2023-04-03T07:41:03;8.25;;;2.95;;
70761;SDS011;58360;0.000;0.000;2023-04-03T07:43:35;7.60;;;3.05;;
70761;SDS011;58360;0.000;0.000;2023-04-03T07:46:01;7.15;;;2.85;;
70761;SDS011;58360;0.000;0.000;2023-04-03T07:48:30;5.95;;;2.83;;
70761;SDS011;58360;0.000;0.000;2023-04-03T07:50:59;7.07;;;2.80;;
70761;SDS011;58360;0.000;0.000;2023-04-03T07:53:25;7.55;;;2.60;;
70761;SDS011;58360;0.000;0.000;2023-04-03T07:55:51;6.05;;;2.40;;
70761;SDS011;58360;0.000;0.000;2023-04-03T07:58:20;8.00;;;3.30;;
70761;SDS011;58360;0.000;0.000;2023-04-03T08:00:46;6.53;;;2.60;;
70761;SDS011;58360;0.000;0.000;2023-04-03T08:03:13;8.88;;;2.85;;
70761;SDS011;58360;0.000;0.000;2023-04-03T08:05:42;8.90;;;2.70;;
70761;SDS011;58360;0.000;0.000;2023-04-03T08:08:10;8.65;;;2.63;;
70761;SDS011;58360;0.000;0.000;2023-04-03T08:10:36;9.50;;;3.45;;
70761;SDS011;58360;0.000;0.000;2023-04-03T08:13:02;6.97;;;2.30;;
70761;SDS011;58360;0.000;0.000;2023-04-03T08:15:30;8.00;;;2.80;;
70761;SDS011;58360;0.000;0.000;2023-04-03T08:17:56;6.45;;;2.58;;
70761;SDS011;58360;0.000;0.000;2023-04-03T08:20:22;6.95;;;2.40;;
70761;SDS011;58360;0.000;0.000;2023-04-03T08:22:48;6.05;;;2.35;;
70761;SDS011;58360;0.000;0.000;2023-04-03T08:25:13;7.32;;;2.75;;
70761;SDS011;58360;0.000;0.000;2023-04-03T08:27:39;5.97;;;2.20;;
70761;SDS011;58360;0.000;0.000;2023-04-03T08:30:05;5.53;;;2.20;;
70761;SDS011;58360;0.000;0.000;2023-04-03T08:32:32;8.55;;;2.80;;
70761;SDS011;58360;0.000;0.000;2023-04-03T08:34:59;18.00;;;2.90;;
70761;SDS011;58360;0.000;0.000;2023-04-03T08:37:25;8.25;;;2.60;;
70761;SDS011;58360;0.000;0.000;2023-04-03T08:39:51;6.32;;;2.55;;
70761;SDS011;58360;0.000;0.000;2023-04-03T08:45:22;7.03;;;2.33;;
70761;SDS011;58360;0.000;0.000;2023-04-03T08:48:13;7.32;;;2.85;;
70761;SDS011;58360;0.000;0.000;2023-04-03T08:50:50;4.90;;;2.30;;
70761;SDS011;58360;0.000;0.000;2023-04-03T08:53:22;5.60;;;2.00;;
70761;SDS011;58360;0.000;0.000;2023-04-03T08:55:58;5.85;;;2.45;;
70761;SDS011;58360;0.000;0.000;2023-04-03T08:58:33;8.70;;;2.60;;
70761;SDS011;58360;0.000;0.000;2023-04-03T09:04:13;5.18;;;2.08;;
70761;SDS011;58360;0.000;0.000;2023-04-03T09:06:44;7.78;;;2.03;;
70761;SDS011;58360;0.000;0.000;2023-04-03T09:11:57;4.53;;;1.88;;
70761;SDS011;58360;0.000;0.000;2023-04-03T09:22:52;5.93;;;1.88;;
70761;SDS011;58360;0.000;0.000;2023-04-03T09:25:25;4.50;;;2.10;;
70761;SDS011;58360;0.000;0.000;2023-04-03T09:28:02;6.20;;;2.10;;
70761;SDS011;58360;0.000;0.000;2023-04-03T09:30:34;14.02;;;2.22;;
70761;SDS011;58360;0.000;0.000;2023-04-03T09:33:00;7.30;;;2.00;;
70761;SDS011;58360;0.000;0.000;2023-04-03T09:38:28;6.15;;;2.35;;
70761;SDS011;58360;0.000;0.000;2023-04-03T09:40:48;4.78;;;2.22;;
70761;SDS011;58360;0.000;0.000;2023-04-03T09:43:34;6.43;;;2.28;;
70761;SDS011;58360;0.000;0.000;2023-04-03T09:49:04;5.30;;;2.05;;
70761;SDS011;58360;0.000;0.000;2023-04-03T09:51:31;6.75;;;1.90;;
70761;SDS011;58360;0.000;0.000;2023-04-03T09:53:57;5.63;;;2.00;;
70761;SDS011;58360;0.000;0.000;2023-04-03T09:56:25;5.35;;;1.92;;
70761;SDS011;58360;0.000;0.000;2023-04-03T10:04:04;6.32;;;2.38;;
70761;SDS011;58360;0.000;0.000;2023-04-03T10:06:43;4.50;;;1.90;;
70761;SDS011;58360;0.000;0.000;2023-04-03T10:09:21;5.22;;;1.92;;
70761;SDS011;58360;0.000;0.000;2023-04-03T10:12:08;5.65;;;1.85;;
70761;SDS011;58360;0.000;0.000;2023-04-03T10:14:39;5.80;;;2.13;;
70761;SDS011;58360;0.000;0.000;2023-04-03T10:23:02;5.68;;;2.10;;
70761;SDS011;58360;0.000;0.000;2023-04-03T10:26:05;4.93;;;1.90;;
70761;SDS011;58360;0.000;0.000;2023-04-03T10:31:17;4.47;;;2.00;;
70761;SDS011;58360;0.000;0.000;2023-04-03T10:36:42;5.97;;;2.17;;
70761;SDS011;58360;0.000;0.000;2023-04-03T10:39:52;10.57;;;2.20;;
70761;SDS011;58360;0.000;0.000;2023-04-03T10:45:20;5.45;;;2.30;;
70761;SDS011;58360;0.000;0.000;2023-04-03T10:47:59;5.78;;;2.13;;
70761;SDS011;58360;0.000;0.000;2023-04-03T10:58:18;3.30;;;1.40;;
70761;SDS011;58360;0.000;0.000;2023-04-03T11:00:51;4.40;;;1.80;;
70761;SDS011;58360;0.000;0.000;2023-04-03T11:03:36;5.13;;;2.03;;
70761;SDS011;58360;0.000;0.000;2023-04-03T11:06:07;4.32;;;1.60;;
70761;SDS011;58360;0.000;0.000;2023-04-03T11:11:36;5.35;;;1.75;;
70761;SDS011;58360;0.000;0.000;2023-04-03T11:17:01;4.15;;;1.77;;
70761;SDS011;58360;0.000;0.000;2023-04-03T11:19:38;4.53;;;1.40;;
70761;SDS011;58360;0.000;0.000;2023-04-03T11:27:40;2.97;;;1.40;;
70761;SDS011;58360;0.000;0.000;2023-04-03T11:30:25;9.57;;;1.60;;
70761;SDS011;58360;0.000;0.000;2023-04-03T11:33:05;3.03;;;1.33;;
70761;SDS011;58360;0.000;0.000;2023-04-03T11:35:35;3.92;;;1.45;;
70761;SDS011;58360;0.000;0.000;2023-04-03T11:38:02;3.78;;;1.30;;
70761;SDS011;58360;0.000;0.000;2023-04-03T11:43:06;2.47;;;1.13;;
70761;SDS011;58360;0.000;0.000;2023-04-03T11:50:47;3.47;;;1.50;;
70761;SDS011;58360;0.000;0.000;2023-04-03T12:16:07;4.50;;;1.35;;
70761;SDS011;58360;0.000;0.000;2023-04-03T12:24:29;5.47;;;1.60;;
70761;SDS011;58360;0.000;0.000;2023-04-03T12:35:09;4.22;;;1.55;;
70761;SDS011;58360;0.000;0.000;2023-04-03T12:48:31;4.30;;;1.30;;
70761;SDS011;58360;0.000;0.000;2023-04-03T12:51:03;4.40;;;1.63;;
70761;SDS011;58360;0.000;0.000;2023-04-03T12:53:34;4.47;;;1.50;;
70761;SDS011;58360;0.000;0.000;2023-04-03T12:58:48;2.70;;;1.50;;
70761;SDS011;58360;0.000;0.000;2023-04-03T13:01:19;2.97;;;1.35;;
70761;SDS011;58360;0.000;0.000;2023-04-03T13:03:49;6.70;;;1.60;;
70761;SDS011;58360;0.000;0.000;2023-04-03T13:06:19;5.47;;;1.70;;
70761;SDS011;58360;0.000;0.000;2023-04-03T13:08:54;6.85;;;1.70;;
70761;SDS011;58360;0.000;0.000;2023-04-03T13:11:25;3.53;;;1.55;;
70761;SDS011;58360;0.000;0.000;2023-04-03T13:16:22;4.95;;;1.65;;
70761;SDS011;58360;0.000;0.000;2023-04-03T13:18:52;16.50;;;2.08;;
70761;SDS011;58360;0.000;0.000;2023-04-03T13:21:20;4.47;;;1.70;;
70761;SDS011;58360;0.000;0.000;2023-04-03T13:23:52;5.25;;;1.80;;
70761;SDS011;58360;0.000;0.000;2023-04-03T13:26:24;4.47;;;1.60;;
70761;SDS011;58360;0.000;0.000;2023-04-03T13:28:52;4.90;;;1.65;;
70761;SDS011;58360;0.000;0.000;2023-04-03T13:31:22;2.70;;;1.35;;
70761;SDS011;58360;0.000;0.000;2023-04-03T13:33:57;4.68;;;1.70;;
70761;SDS011;58360;0.000;0.000;2023-04-03T13:36:31;4.30;;;1.65;;
70761;SDS011;58360;0.000;0.000;2023-04-03T13:39:01;5.20;;;1.80;;
70761;SDS011;58360;0.000;0.000;2023-04-03T13:41:48;4.93;;;1.85;;
70761;SDS011;58360;0.000;0.000;2023-04-03T13:46:42;6.35;;;1.88;;
70761;SDS011;58360;0.000;0.000;2023-04-03T13:49:22;4.18;;;1.50;;
70761;SDS011;58360;0.000;0.000;2023-04-03T13:51:52;8.52;;;2.53;;
70761;SDS011;58360;0.000;0.000;2023-04-03T13:54:39;8.80;;;1.40;;
70761;SDS011;58360;0.000;0.000;2023-04-03T13:57:11;5.00;;;1.70;;
70761;SDS011;58360;0.000;0.000;2023-04-03T13:59:39;3.08;;;1.60;;
70761;SDS011;58360;0.000;0.000;2023-04-03T14:09:31;5.68;;;1.70;;
70761;SDS011;58360;0.000;0.000;2023-04-03T14:12:02;4.10;;;1.50;;
70761;SDS011;58360;0.000;0.000;2023-04-03T14:14:34;4.10;;;1.70;;
70761;SDS011;58360;0.000;0.000;2023-04-03T14:17:09;4.93;;;1.70;;
70761;SDS011;58360;0.000;0.000;2023-04-03T14:19:43;3.13;;;1.40;;
70761;SDS011;58360;0.000;0.000;2023-04-03T14:22:17;4.63;;;1.80;;
70761;SDS011;58360;0.000;0.000;2023-04-03T14:24:56;4.47;;;1.80;;
70761;SDS011;58360;0.000;0.000;2023-04-03T14:27:24;5.38;;;1.73;;
70761;SDS011;58360;0.000;0.000;2023-04-03T14:29:53;4.68;;;1.70;;
70761;SDS011;58360;0.000;0.000;2023-04-03T14:32:20;4.35;;;1.45;;
70761;SDS011;58360;0.000;0.000;2023-04-03T14:34:48;5.57;;;1.70;;
70761;SDS011;58360;0.000;0.000;2023-04-03T14:37:17;3.45;;;1.50;;
70761;SDS011;58360;0.000;0.000;2023-04-03T14:39:45;5.07;;;2.17;;
70761;SDS011;58360;0.000;0.000;2023-04-03T14:42:12;4.47;;;1.73;;
70761;SDS011;58360;0.000;0.000;2023-04-03T14:44:40;4.38;;;1.67;;
70761;SDS011;58360;0.000;0.000;2023-04-03T14:47:09;4.38;;;2.00;;
70761;SDS011;58360;0.000;0.000;2023-04-03T14:49:40;5.95;;;1.80;;
70761;SDS011;58360;0.000;0.000;2023-04-03T14:54:58;4.57;;;1.65;;
70761;SDS011;58360;0.000;0.000;2023-04-03T14:57:25;3.63;;;1.60;;
70761;SDS011;58360;0.000;0.000;2023-04-03T14:59:53;4.35;;;1.67;;
70761;SDS011;58360;0.000;0.000;2023-04-03T15:02:32;7.10;;;1.60;;
70761;SDS011;58360;0.000;0.000;2023-04-03T15:05:00;4.70;;;1.80;;
70761;SDS011;58360;0.000;0.000;2023-04-03T15:07:29;3.90;;;1.55;;
70761;SDS011;58360;0.000;0.000;2023-04-03T15:09:57;5.18;;;2.05;;
70761;SDS011;58360;0.000;0.000;2023-04-03T15:12:24;5.90;;;1.50;;
70761;SDS011;58360;0.000;0.000;2023-04-03T15:14:50;3.13;;;1.38;;
70761;SDS011;58360;0.000;0.000;2023-04-03T15:17:19;5.38;;;1.60;;
70761;SDS011;58360;0.000;0.000;2023-04-03T15:19:47;5.00;;;1.67;;
70761;SDS011;58360;0.000;0.000;2023-04-03T15:22:17;4.13;;;1.58;;
70761;SDS011;58360;0.000;0.000;2023-04-03T15:24:44;3.50;;;1.53;;
70761;SDS011;58360;0.000;0.000;2023-04-03T15:27:10;3.05;;;1.52;;
70761;SDS011;58360;0.000;0.000;2023-04-03T15:29:37;6.00;;;1.70;;
70761;SDS011;58360;0.000;0.000;2023-04-03T15:32:05;5.85;;;2.15;;
70761;SDS011;58360;0.000;0.000;2023-04-03T15:34:30;7.80;;;3.33;;
70761;SDS011;58360;0.000;0.000;2023-04-03T15:36:56;4.10;;;1.80;;
70761;SDS011;58360;0.000;0.000;2023-04-03T15:39:23;8.35;;;3.22;;
70761;SDS011;58360;0.000;0.000;2023-04-03T15:41:50;5.28;;;2.22;;
70761;SDS011;58360;0.000;0.000;2023-04-03T15:44:17;6.57;;;1.88;;
70761;SDS011;58360;0.000;0.000;2023-04-03T15:46:43;5.15;;;1.90;;
70761;SDS011;58360;0.000;0.000;2023-04-03T15:49:10;6.90;;;2.35;;
70761;SDS011;58360;0.000;0.000;2023-04-03T15:51:37;5.82;;;2.40;;
70761;SDS011;58360;0.000;0.000;2023-04-03T15:54:02;9.32;;;2.40;;
70761;SDS011;58360;0.000;0.000;2023-04-03T15:56:28;7.85;;;2.10;;
70761;SDS011;58360;0.000;0.000;2023-04-03T15:58:54;12.18;;;4.35;;
70761;SDS011;58360;0.000;0.000;2023-04-03T16:01:20;9.48;;;3.88;;
70761;SDS011;58360;0.000;0.000;2023-04-03T16:03:45;6.20;;;2.10;;
70761;SDS011;58360;0.000;0.000;2023-04-03T16:06:12;8.10;;;2.10;;
70761;SDS011;58360;0.000;0.000;2023-04-03T16:08:40;10.05;;;2.17;;
70761;SDS011;58360;0.000;0.000;2023-04-03T16:11:06;4.53;;;1.92;;
70761;SDS011;58360;0.000;0.000;2023-04-03T16:13:32;6.00;;;1.95;;
70761;SDS011;58360;0.000;0.000;2023-04-03T16:15:58;7.05;;;2.33;;
70761;SDS011;58360;0.000;0.000;2023-04-03T16:18:25;3.92;;;1.63;;
70761;SDS011;58360;0.000;0.000;2023-04-03T16:20:51;10.18;;;2.28;;
70761;SDS011;58360;0.000;0.000;2023-04-03T16:23:17;5.05;;;2.10;;
70761;SDS011;58360;0.000;0.000;2023-04-03T16:25:43;4.80;;;1.80;;
70761;SDS011;58360;0.000;0.000;2023-04-03T16:28:11;10.38;;;2.70;;
70761;SDS011;58360;0.000;0.000;2023-04-03T16:30:38;11.95;;;3.50;;
70761;SDS011;58360;0.000;0.000;2023-04-03T16:33:08;10.00;;;3.67;;
70761;SDS011;58360;0.000;0.000;2023-04-03T16:35:34;9.77;;;4.25;;
70761;SDS011;58360;0.000;0.000;2023-04-03T16:38:00;11.85;;;3.85;;
70761;SDS011;58360;0.000;0.000;2023-04-03T16:40:26;5.25;;;1.80;;
70761;SDS011;58360;0.000;0.000;2023-04-03T16:42:51;6.57;;;2.00;;
70761;SDS011;58360;0.000;0.000;2023-04-03T16:45:17;8.13;;;2.17;;
70761;SDS011;58360;0.000;0.000;2023-04-03T16:47:43;6.40;;;2.25;;
70761;SDS011;58360;0.000;0.000;2023-04-03T16:50:09;5.78;;;2.28;;
70761;SDS011;58360;0.000;0.000;2023-04-03T16:52:35;6.32;;;2.20;;
70761;SDS011;58360;0.000;0.000;2023-04-03T16:55:01;5.50;;;1.88;;
70761;SDS011;58360;0.000;0.000;2023-04-03T16:57:27;7.05;;;2.22;;
70761;SDS011;58360;0.000;0.000;2023-04-03T16:59:52;7.40;;;2.53;;
70761;SDS011;58360;0.000;0.000;2023-04-03T17:02:19;7.72;;;2.00;;
70761;SDS011;58360;0.000;0.000;2023-04-03T17:04:46;4.50;;;1.92;;
70761;SDS011;58360;0.000;0.000;2023-04-03T17:07:12;9.77;;;1.85;;
70761;SDS011;58360;0.000;0.000;2023-04-03T17:09:37;6.15;;;2.20;;
70761;SDS011;58360;0.000;0.000;2023-04-03T17:12:03;5.30;;;2.00;;
70761;SDS011;58360;0.000;0.000;2023-04-03T17:14:29;7.97;;;1.98;;
70761;SDS011;58360;0.000;0.000;2023-04-03T17:16:55;6.88;;;2.30;;
70761;SDS011;58360;0.000;0.000;2023-04-03T17:19:21;5.72;;;2.10;;
70761;SDS011;58360;0.000;0.000;2023-04-03T17:21:48;6.47;;;1.80;;
70761;SDS011;58360;0.000;0.000;2023-04-03T17:24:14;6.05;;;2.10;;
70761;SDS011;58360;0.000;0.000;2023-04-03T17:26:40;4.50;;;1.80;;